sensor_id;sensor_type;location;lat;lon;timestamp;temperature;humidity
16160;DHT22;8185;57.818;15.224;2023-11-19T00:00:09;-5.80;99.90
16160;DHT22;8185;57.818;15.224;2023-11-19T00:02:38;-5.80;99.90
16160;DHT22;8185;57.818;15.224;2023-11-19T00:05:06;-5.80;99.90
16160;DHT22;8185;57.818;15.224;2023-11-19T00:07:35;-5.70;99.90
16160;DHT22;8185;57.818;15.224;2023-11-19T00:10:03;-5.70;99.90
16160;DHT22;8185;57.818;15.224;2023-11-19T00:12:32;-5.80;99.90
16160;DHT22;8185;57.818;15.224;2023-11-19T00:15:00;-5.80;99.90
16160;DHT22;8185;57.818;15.224;2023-11-19T00:17:28;-5.80;99.90
16160;DHT22;8185;57.818;15.224;2023-11-19T00:19:56;-5.90;99.90
16160;DHT22;8185;57.818;15.224;2023-11-19T00:22:24;-6.00;99.90
16160;DHT22;8185;57.818;15.224;2023-11-19T00:24:51;-6.00;99.90
16160;DHT22;8185;57.818;15.224;2023-11-19T00:27:19;-6.00;99.90
16160;DHT22;8185;57.818;15.224;2023-11-19T00:29:46;-5.90;99.90
16160;DHT22;8185;57.818;15.224;2023-11-19T00:32:13;-5.90;99.90
16160;DHT22;8185;57.818;15.224;2023-11-19T00:34:43;-5.90;99.90
16160;DHT22;8185;57.818;15.224;2023-11-19T00:37:10;-5.90;99.90
16160;DHT22;8185;57.818;15.224;2023-11-19T00:39:38;-5.90;99.90
16160;DHT22;8185;57.818;15.224;2023-11-19T00:42:05;-5.90;99.90
16160;DHT22;8185;57.818;15.224;2023-11-19T00:44:32;-5.90;99.90
16160;DHT22;8185;57.818;15.224;2023-11-19T00:47:00;-5.90;99.90
16160;DHT22;8185;57.818;15.224;2023-11-19T00:49:27;-5.80;99.90
16160;DHT22;8185;57.818;15.224;2023-11-19T00:51:56;-5.90;99.90
16160;DHT22;8185;57.818;15.224;2023-11-19T00:54:25;-5.90;99.90
16160;DHT22;8185;57.818;15.224;2023-11-19T00:56:52;-5.90;99.90
16160;DHT22;8185;57.818;15.224;2023-11-19T00:59:19;-5.90;99.90
16160;DHT22;8185;57.818;15.224;2023-11-19T01:01:47;-5.80;99.90
16160;DHT22;8185;57.818;15.224;2023-11-19T01:04:15;-5.80;99.90
16160;DHT22;8185;57.818;15.224;2023-11-19T01:06:42;-5.80;99.90
16160;DHT22;8185;57.818;15.224;2023-11-19T01:09:10;-5.90;99.90
16160;DHT22;8185;57.818;15.224;2023-11-19T01:11:38;-5.90;99.90
16160;DHT22;8185;57.818;15.224;2023-11-19T01:14:05;-6.00;99.90
16160;DHT22;8185;57.818;15.224;2023-11-19T01:16:32;-6.00;99.90
16160;DHT22;8185;57.818;15.224;2023-11-19T01:19:00;-6.00;99.90
16160;DHT22;8185;57.818;15.224;2023-11-19T01:21:30;-6.00;99.90
16160;DHT22;8185;57.818;15.224;2023-11-19T01:23:58;-6.00;99.90
16160;DHT22;8185;57.818;15.224;2023-11-19T01:26:27;-6.00;99.90
16160;DHT22;8185;57.818;15.224;2023-11-19T01:28:54;-6.00;99.90
16160;DHT22;8185;57.818;15.224;2023-11-19T01:31:21;-5.90;99.90
16160;DHT22;8185;57.818;15.224;2023-11-19T01:33:49;-5.80;99.90
16160;DHT22;8185;57.818;15.224;2023-11-19T01:36:16;-5.50;99.90
16160;DHT22;8185;57.818;15.224;2023-11-19T01:38:43;-5.30;99.90
16160;DHT22;8185;57.818;15.224;2023-11-19T01:41:10;-5.20;99.90
16160;DHT22;8185;57.818;15.224;2023-11-19T01:43:40;-5.20;99.90
16160;DHT22;8185;57.818;15.224;2023-11-19T01:46:08;-5.20;99.90
16160;DHT22;8185;57.818;15.224;2023-11-19T01:48:39;-5.20;99.90
16160;DHT22;8185;57.818;15.224;2023-11-19T01:51:08;-5.30;99.90
16160;DHT22;8185;57.818;15.224;2023-11-19T01:53:37;-5.30;99.90
16160;DHT22;8185;57.818;15.224;2023-11-19T01:56:06;-5.40;99.90
16160;DHT22;8185;57.818;15.224;2023-11-19T01:58:35;-5.50;99.90
16160;DHT22;8185;57.818;15.224;2023-11-19T02:01:06;-5.60;99.90
16160;DHT22;8185;57.818;15.224;2023-11-19T02:03:34;-5.70;99.90
16160;DHT22;8185;57.818;15.224;2023-11-19T02:06:01;-5.80;99.90
16160;DHT22;8185;57.818;15.224;2023-11-19T02:08:29;-5.80;99.90
16160;DHT22;8185;57.818;15.224;2023-11-19T02:10:57;-5.80;99.90
16160;DHT22;8185;57.818;15.224;2023-11-19T02:13:24;-5.80;99.90
16160;DHT22;8185;57.818;15.224;2023-11-19T02:15:52;-5.70;99.90
16160;DHT22;8185;57.818;15.224;2023-11-19T02:18:25;-5.70;99.90
16160;DHT22;8185;57.818;15.224;2023-11-19T02:20:54;-5.60;99.90
16160;DHT22;8185;57.818;15.224;2023-11-19T02:23:21;-5.50;99.90
16160;DHT22;8185;57.818;15.224;2023-11-19T02:25:59;-5.50;99.90
16160;DHT22;8185;57.818;15.224;2023-11-19T02:28:29;-5.50;99.90
16160;DHT22;8185;57.818;15.224;2023-11-19T02:30:58;-5.60;99.90
16160;DHT22;8185;57.818;15.224;2023-11-19T02:33:25;-5.50;99.90
16160;DHT22;8185;57.818;15.224;2023-11-19T02:35:53;-5.50;99.90
16160;DHT22;8185;57.818;15.224;2023-11-19T02:38:20;-5.40;99.90
16160;DHT22;8185;57.818;15.224;2023-11-19T02:40:47;-5.40;99.90
16160;DHT22;8185;57.818;15.224;2023-11-19T02:43:15;-5.30;99.90
16160;DHT22;8185;57.818;15.224;2023-11-19T02:45:43;-5.20;99.90
16160;DHT22;8185;57.818;15.224;2023-11-19T02:48:11;-5.10;99.90
16160;DHT22;8185;57.818;15.224;2023-11-19T02:50:40;-5.00;99.90
16160;DHT22;8185;57.818;15.224;2023-11-19T02:53:08;-4.90;99.90
16160;DHT22;8185;57.818;15.224;2023-11-19T02:55:35;-4.90;99.90
16160;DHT22;8185;57.818;15.224;2023-11-19T02:58:04;-4.80;99.90
16160;DHT22;8185;57.818;15.224;2023-11-19T03:00:46;-4.80;99.90
16160;DHT22;8185;57.818;15.224;2023-11-19T03:03:20;-4.70;99.90
16160;DHT22;8185;57.818;15.224;2023-11-19T03:05:48;-4.70;99.90
16160;DHT22;8185;57.818;15.224;2023-11-19T03:08:16;-4.60;99.90
16160;DHT22;8185;57.818;15.224;2023-11-19T03:10:43;-4.60;99.90
16160;DHT22;8185;57.818;15.224;2023-11-19T03:13:12;-4.50;99.90
16160;DHT22;8185;57.818;15.224;2023-11-19T03:15:40;-4.50;99.90
16160;DHT22;8185;57.818;15.224;2023-11-19T03:18:09;-4.50;99.90
16160;DHT22;8185;57.818;15.224;2023-11-19T03:20:36;-4.50;99.90
16160;DHT22;8185;57.818;15.224;2023-11-19T03:23:04;-4.40;99.90
16160;DHT22;8185;57.818;15.224;2023-11-19T03:25:32;-4.40;99.90
16160;DHT22;8185;57.818;15.224;2023-11-19T03:28:00;-4.30;99.90
16160;DHT22;8185;57.818;15.224;2023-11-19T03:30:28;-4.30;99.90
16160;DHT22;8185;57.818;15.224;2023-11-19T03:32:56;-4.20;99.90
16160;DHT22;8185;57.818;15.224;2023-11-19T03:35:25;-4.20;99.90
16160;DHT22;8185;57.818;15.224;2023-11-19T03:37:54;-4.10;99.90
16160;DHT22;8185;57.818;15.224;2023-11-19T03:40:21;-4.10;99.90
16160;DHT22;8185;57.818;15.224;2023-11-19T03:42:50;-4.00;99.90
16160;DHT22;8185;57.818;15.224;2023-11-19T03:45:17;-4.00;99.90
16160;DHT22;8185;57.818;15.224;2023-11-19T03:47:44;-3.90;99.90
16160;DHT22;8185;57.818;15.224;2023-11-19T03:50:12;-3.90;99.90
16160;DHT22;8185;57.818;15.224;2023-11-19T03:52:43;-3.80;99.90
16160;DHT22;8185;57.818;15.224;2023-11-19T03:55:10;-3.70;99.90
16160;DHT22;8185;57.818;15.224;2023-11-19T03:57:38;-3.60;99.90
16160;DHT22;8185;57.818;15.224;2023-11-19T04:00:07;-3.60;99.90
16160;DHT22;8185;57.818;15.224;2023-11-19T04:02:36;-3.60;99.90
16160;DHT22;8185;57.818;15.224;2023-11-19T04:05:03;-3.60;99.90
16160;DHT22;8185;57.818;15.224;2023-11-19T04:07:31;-3.60;99.90
16160;DHT22;8185;57.818;15.224;2023-11-19T04:10:00;-3.60;99.90
16160;DHT22;8185;57.818;15.224;2023-11-19T04:12:27;-3.60;99.90
16160;DHT22;8185;57.818;15.224;2023-11-19T04:14:55;-3.50;99.90
16160;DHT22;8185;57.818;15.224;2023-11-19T04:17:22;-3.50;99.90
16160;DHT22;8185;57.818;15.224;2023-11-19T04:19:50;-3.50;99.90
16160;DHT22;8185;57.818;15.224;2023-11-19T04:22:17;-3.40;99.90
16160;DHT22;8185;57.818;15.224;2023-11-19T04:24:44;-3.40;99.90
16160;DHT22;8185;57.818;15.224;2023-11-19T04:27:14;-3.40;99.90
16160;DHT22;8185;57.818;15.224;2023-11-19T04:29:41;-3.30;99.90
16160;DHT22;8185;57.818;15.224;2023-11-19T04:32:08;-3.30;99.90
16160;DHT22;8185;57.818;15.224;2023-11-19T04:34:35;-3.30;99.90
16160;DHT22;8185;57.818;15.224;2023-11-19T04:37:03;-3.20;99.90
16160;DHT22;8185;57.818;15.224;2023-11-19T04:39:31;-3.20;99.90
16160;DHT22;8185;57.818;15.224;2023-11-19T04:41:58;-3.20;99.90
16160;DHT22;8185;57.818;15.224;2023-11-19T04:44:27;-3.10;99.90
16160;DHT22;8185;57.818;15.224;2023-11-19T04:46:55;-3.10;99.90
16160;DHT22;8185;57.818;15.224;2023-11-19T04:49:23;-3.00;99.90
16160;DHT22;8185;57.818;15.224;2023-11-19T04:51:52;-3.00;99.90
16160;DHT22;8185;57.818;15.224;2023-11-19T04:54:19;-2.90;99.90
16160;DHT22;8185;57.818;15.224;2023-11-19T04:56:47;-2.80;99.90
16160;DHT22;8185;57.818;15.224;2023-11-19T04:59:14;-2.80;99.90
16160;DHT22;8185;57.818;15.224;2023-11-19T05:01:46;-2.80;99.90
16160;DHT22;8185;57.818;15.224;2023-11-19T05:04:14;-2.80;99.90
16160;DHT22;8185;57.818;15.224;2023-11-19T05:06:41;-2.70;99.90
16160;DHT22;8185;57.818;15.224;2023-11-19T05:09:09;-2.70;99.90
16160;DHT22;8185;57.818;15.224;2023-11-19T05:11:39;-2.70;99.90
16160;DHT22;8185;57.818;15.224;2023-11-19T05:14:06;-2.70;99.90
16160;DHT22;8185;57.818;15.224;2023-11-19T05:16:35;-2.60;99.90
16160;DHT22;8185;57.818;15.224;2023-11-19T05:19:03;-2.60;99.90
16160;DHT22;8185;57.818;15.224;2023-11-19T05:21:31;-2.60;99.90
16160;DHT22;8185;57.818;15.224;2023-11-19T05:23:58;-2.60;99.90
16160;DHT22;8185;57.818;15.224;2023-11-19T05:26:25;-2.60;99.90
16160;DHT22;8185;57.818;15.224;2023-11-19T05:28:53;-2.50;99.90
16160;DHT22;8185;57.818;15.224;2023-11-19T05:31:20;-2.50;99.90
16160;DHT22;8185;57.818;15.224;2023-11-19T05:33:47;-2.50;99.90
16160;DHT22;8185;57.818;15.224;2023-11-19T05:36:16;-2.50;99.90
16160;DHT22;8185;57.818;15.224;2023-11-19T05:38:43;-2.50;99.90
16160;DHT22;8185;57.818;15.224;2023-11-19T05:41:11;-2.50;99.90
16160;DHT22;8185;57.818;15.224;2023-11-19T05:43:38;-2.40;99.90
16160;DHT22;8185;57.818;15.224;2023-11-19T05:46:07;-2.40;99.90
16160;DHT22;8185;57.818;15.224;2023-11-19T05:48:34;-2.40;99.90
16160;DHT22;8185;57.818;15.224;2023-11-19T05:51:02;-2.40;99.90
16160;DHT22;8185;57.818;15.224;2023-11-19T05:53:31;-2.40;99.90
16160;DHT22;8185;57.818;15.224;2023-11-19T05:55:58;-2.40;99.90
16160;DHT22;8185;57.818;15.224;2023-11-19T05:58:30;-2.40;99.90
16160;DHT22;8185;57.818;15.224;2023-11-19T06:00:58;-2.40;99.90
16160;DHT22;8185;57.818;15.224;2023-11-19T06:03:26;-2.30;99.90
16160;DHT22;8185;57.818;15.224;2023-11-19T06:05:54;-2.30;99.90
16160;DHT22;8185;57.818;15.224;2023-11-19T06:08:21;-2.30;99.90
16160;DHT22;8185;57.818;15.224;2023-11-19T06:10:50;-2.20;99.90
16160;DHT22;8185;57.818;15.224;2023-11-19T06:13:17;-2.20;99.90
16160;DHT22;8185;57.818;15.224;2023-11-19T06:15:45;-2.10;99.90
16160;DHT22;8185;57.818;15.224;2023-11-19T06:18:12;-2.10;99.90
16160;DHT22;8185;57.818;15.224;2023-11-19T06:20:40;-2.10;99.90
16160;DHT22;8185;57.818;15.224;2023-11-19T06:23:08;-2.10;99.90
16160;DHT22;8185;57.818;15.224;2023-11-19T06:25:35;-2.00;99.90
16160;DHT22;8185;57.818;15.224;2023-11-19T06:28:04;-2.00;99.90
16160;DHT22;8185;57.818;15.224;2023-11-19T06:30:31;-2.00;99.90
16160;DHT22;8185;57.818;15.224;2023-11-19T06:32:59;-1.90;99.90
16160;DHT22;8185;57.818;15.224;2023-11-19T06:35:26;-1.90;99.90
16160;DHT22;8185;57.818;15.224;2023-11-19T06:37:55;-1.90;99.90
16160;DHT22;8185;57.818;15.224;2023-11-19T06:40:23;-1.90;99.90
16160;DHT22;8185;57.818;15.224;2023-11-19T06:42:50;-1.90;99.90
16160;DHT22;8185;57.818;15.224;2023-11-19T06:45:19;-1.90;99.90
16160;DHT22;8185;57.818;15.224;2023-11-19T06:47:47;-1.80;99.90
16160;DHT22;8185;57.818;15.224;2023-11-19T06:50:15;-1.80;99.90
16160;DHT22;8185;57.818;15.224;2023-11-19T06:52:42;-1.90;99.90
16160;DHT22;8185;57.818;15.224;2023-11-19T06:55:10;-1.90;99.90
16160;DHT22;8185;57.818;15.224;2023-11-19T06:57:38;-1.80;99.90
16160;DHT22;8185;57.818;15.224;2023-11-19T07:00:06;-1.80;99.90
16160;DHT22;8185;57.818;15.224;2023-11-19T07:02:36;-1.70;99.90
16160;DHT22;8185;57.818;15.224;2023-11-19T07:05:03;-1.70;99.90
16160;DHT22;8185;57.818;15.224;2023-11-19T07:07:31;-1.70;99.90
16160;DHT22;8185;57.818;15.224;2023-11-19T07:09:59;-1.70;99.90
16160;DHT22;8185;57.818;15.224;2023-11-19T07:12:28;-1.60;99.90
16160;DHT22;8185;57.818;15.224;2023-11-19T07:14:55;-1.60;99.90
16160;DHT22;8185;57.818;15.224;2023-11-19T07:17:22;-1.50;99.90
16160;DHT22;8185;57.818;15.224;2023-11-19T07:19:52;-1.50;99.90
16160;DHT22;8185;57.818;15.224;2023-11-19T07:22:20;-1.50;99.90
16160;DHT22;8185;57.818;15.224;2023-11-19T07:24:47;-1.50;99.90
16160;DHT22;8185;57.818;15.224;2023-11-19T07:27:16;-1.40;99.90
16160;DHT22;8185;57.818;15.224;2023-11-19T07:29:44;-1.30;99.90
16160;DHT22;8185;57.818;15.224;2023-11-19T07:32:12;-1.30;99.90
16160;DHT22;8185;57.818;15.224;2023-11-19T07:34:39;-1.30;99.90
16160;DHT22;8185;57.818;15.224;2023-11-19T07:37:08;-1.30;99.90
16160;DHT22;8185;57.818;15.224;2023-11-19T07:39:36;-1.30;99.90
16160;DHT22;8185;57.818;15.224;2023-11-19T07:42:06;-1.30;99.90
16160;DHT22;8185;57.818;15.224;2023-11-19T07:44:35;-1.30;99.90
16160;DHT22;8185;57.818;15.224;2023-11-19T07:47:02;-1.20;99.90
16160;DHT22;8185;57.818;15.224;2023-11-19T07:49:30;-1.20;99.90
16160;DHT22;8185;57.818;15.224;2023-11-19T07:51:57;-1.20;99.90
16160;DHT22;8185;57.818;15.224;2023-11-19T07:54:26;-1.20;99.90
16160;DHT22;8185;57.818;15.224;2023-11-19T07:56:53;-1.10;99.90
16160;DHT22;8185;57.818;15.224;2023-11-19T07:59:21;-1.10;99.90
16160;DHT22;8185;57.818;15.224;2023-11-19T08:01:48;-1.10;99.90
16160;DHT22;8185;57.818;15.224;2023-11-19T08:04:16;-1.10;99.90
16160;DHT22;8185;57.818;15.224;2023-11-19T08:06:43;-1.10;99.90
16160;DHT22;8185;57.818;15.224;2023-11-19T08:09:11;-1.00;99.90
16160;DHT22;8185;57.818;15.224;2023-11-19T08:11:41;-1.00;99.90
16160;DHT22;8185;57.818;15.224;2023-11-19T08:14:08;-1.00;99.90
16160;DHT22;8185;57.818;15.224;2023-11-19T08:16:35;-1.00;99.90
16160;DHT22;8185;57.818;15.224;2023-11-19T08:19:03;-0.90;99.90
16160;DHT22;8185;57.818;15.224;2023-11-19T08:21:31;-0.90;99.90
16160;DHT22;8185;57.818;15.224;2023-11-19T08:23:58;-0.90;99.90
16160;DHT22;8185;57.818;15.224;2023-11-19T08:26:25;-0.90;99.90
16160;DHT22;8185;57.818;15.224;2023-11-19T08:28:54;-0.80;99.90
16160;DHT22;8185;57.818;15.224;2023-11-19T08:31:21;-0.80;99.90
16160;DHT22;8185;57.818;15.224;2023-11-19T08:33:48;-0.80;99.90
16160;DHT22;8185;57.818;15.224;2023-11-19T08:36:16;-0.80;99.90
16160;DHT22;8185;57.818;15.224;2023-11-19T08:38:43;-0.70;99.90
16160;DHT22;8185;57.818;15.224;2023-11-19T08:41:11;-0.70;99.90
16160;DHT22;8185;57.818;15.224;2023-11-19T08:43:38;-0.60;99.90
16160;DHT22;8185;57.818;15.224;2023-11-19T08:46:11;-0.60;99.90
16160;DHT22;8185;57.818;15.224;2023-11-19T08:48:39;-0.50;99.90
16160;DHT22;8185;57.818;15.224;2023-11-19T08:51:06;-0.50;99.90
16160;DHT22;8185;57.818;15.224;2023-11-19T08:53:34;-0.40;99.90
16160;DHT22;8185;57.818;15.224;2023-11-19T08:56:01;-0.30;99.90
16160;DHT22;8185;57.818;15.224;2023-11-19T08:58:29;-0.20;99.90
16160;DHT22;8185;57.818;15.224;2023-11-19T09:00:56;-0.20;99.90
16160;DHT22;8185;57.818;15.224;2023-11-19T09:03:25;-0.10;99.90
16160;DHT22;8185;57.818;15.224;2023-11-19T09:05:53;0.00;99.90
16160;DHT22;8185;57.818;15.224;2023-11-19T09:08:20;0.00;99.90
16160;DHT22;8185;57.818;15.224;2023-11-19T09:10:47;0.10;99.90
16160;DHT22;8185;57.818;15.224;2023-11-19T09:13:14;0.10;99.90
16160;DHT22;8185;57.818;15.224;2023-11-19T09:15:42;0.10;99.90
16160;DHT22;8185;57.818;15.224;2023-11-19T09:18:09;0.20;99.90
16160;DHT22;8185;57.818;15.224;2023-11-19T09:20:38;0.30;99.90
16160;DHT22;8185;57.818;15.224;2023-11-19T09:23:05;0.30;99.90
16160;DHT22;8185;57.818;15.224;2023-11-19T09:25:34;0.40;99.90
16160;DHT22;8185;57.818;15.224;2023-11-19T09:28:01;0.50;99.90
16160;DHT22;8185;57.818;15.224;2023-11-19T09:30:28;0.50;99.90
16160;DHT22;8185;57.818;15.224;2023-11-19T09:32:56;0.60;99.90
16160;DHT22;8185;57.818;15.224;2023-11-19T09:35:23;0.70;99.90
16160;DHT22;8185;57.818;15.224;2023-11-19T09:37:52;1.00;99.90
16160;DHT22;8185;57.818;15.224;2023-11-19T09:40:19;1.10;99.90
16160;DHT22;8185;57.818;15.224;2023-11-19T09:42:47;1.10;99.90
16160;DHT22;8185;57.818;15.224;2023-11-19T09:45:16;1.20;99.90
16160;DHT22;8185;57.818;15.224;2023-11-19T09:47:44;1.30;99.90
16160;DHT22;8185;57.818;15.224;2023-11-19T09:50:16;1.20;99.90
16160;DHT22;8185;57.818;15.224;2023-11-19T09:52:44;1.20;99.90
16160;DHT22;8185;57.818;15.224;2023-11-19T09:55:14;1.20;99.90
16160;DHT22;8185;57.818;15.224;2023-11-19T09:57:42;1.30;99.90
16160;DHT22;8185;57.818;15.224;2023-11-19T10:00:11;1.30;99.90
16160;DHT22;8185;57.818;15.224;2023-11-19T10:02:41;1.30;99.90
16160;DHT22;8185;57.818;15.224;2023-11-19T10:05:12;1.30;99.90
16160;DHT22;8185;57.818;15.224;2023-11-19T10:07:40;1.40;99.90
16160;DHT22;8185;57.818;15.224;2023-11-19T10:10:08;1.40;99.90
16160;DHT22;8185;57.818;15.224;2023-11-19T10:12:41;1.40;99.90
16160;DHT22;8185;57.818;15.224;2023-11-19T10:15:11;1.40;99.90
16160;DHT22;8185;57.818;15.224;2023-11-19T10:17:41;1.40;99.90
16160;DHT22;8185;57.818;15.224;2023-11-19T10:20:09;1.40;99.90
16160;DHT22;8185;57.818;15.224;2023-11-19T10:22:37;1.40;99.90
16160;DHT22;8185;57.818;15.224;2023-11-19T10:25:05;1.50;99.90
16160;DHT22;8185;57.818;15.224;2023-11-19T10:27:50;1.50;99.90
16160;DHT22;8185;57.818;15.224;2023-11-19T10:30:18;1.50;99.90
16160;DHT22;8185;57.818;15.224;2023-11-19T10:33:04;1.50;99.90
16160;DHT22;8185;57.818;15.224;2023-11-19T10:35:32;1.60;99.90
16160;DHT22;8185;57.818;15.224;2023-11-19T10:38:00;1.70;99.90
16160;DHT22;8185;57.818;15.224;2023-11-19T10:40:38;1.80;99.90
16160;DHT22;8185;57.818;15.224;2023-11-19T10:43:08;1.90;99.90
16160;DHT22;8185;57.818;15.224;2023-11-19T10:45:36;1.90;99.90
16160;DHT22;8185;57.818;15.224;2023-11-19T10:48:04;1.90;99.90
16160;DHT22;8185;57.818;15.224;2023-11-19T10:50:33;1.90;99.90
16160;DHT22;8185;57.818;15.224;2023-11-19T10:53:02;2.00;99.90
16160;DHT22;8185;57.818;15.224;2023-11-19T10:55:31;2.00;99.90
16160;DHT22;8185;57.818;15.224;2023-11-19T10:58:00;1.80;99.90
16160;DHT22;8185;57.818;15.224;2023-11-19T11:00:36;1.70;99.90
16160;DHT22;8185;57.818;15.224;2023-11-19T11:03:10;1.70;99.90
16160;DHT22;8185;57.818;15.224;2023-11-19T11:05:38;1.60;99.90
16160;DHT22;8185;57.818;15.224;2023-11-19T11:08:06;1.60;99.90
16160;DHT22;8185;57.818;15.224;2023-11-19T11:10:40;1.50;99.90
16160;DHT22;8185;57.818;15.224;2023-11-19T11:13:08;1.50;99.90
16160;DHT22;8185;57.818;15.224;2023-11-19T11:15:39;1.40;99.90
16160;DHT22;8185;57.818;15.224;2023-11-19T11:18:09;1.30;99.90
16160;DHT22;8185;57.818;15.224;2023-11-19T11:20:36;1.20;99.90
16160;DHT22;8185;57.818;15.224;2023-11-19T11:23:21;1.30;99.90
16160;DHT22;8185;57.818;15.224;2023-11-19T11:26:00;1.20;99.90
16160;DHT22;8185;57.818;15.224;2023-11-19T11:28:39;1.20;99.90
16160;DHT22;8185;57.818;15.224;2023-11-19T11:31:19;1.20;99.90
16160;DHT22;8185;57.818;15.224;2023-11-19T11:34:26;1.20;99.90
16160;DHT22;8185;57.818;15.224;2023-11-19T11:37:06;1.10;99.90
16160;DHT22;8185;57.818;15.224;2023-11-19T11:39:40;1.10;99.90
16160;DHT22;8185;57.818;15.224;2023-11-19T11:42:33;1.00;99.90
16160;DHT22;8185;57.818;15.224;2023-11-19T11:45:01;1.00;99.90
16160;DHT22;8185;57.818;15.224;2023-11-19T11:48:06;1.00;99.90
16160;DHT22;8185;57.818;15.224;2023-11-19T11:50:47;0.90;99.90
16160;DHT22;8185;57.818;15.224;2023-11-19T11:53:19;0.90;99.90
16160;DHT22;8185;57.818;15.224;2023-11-19T11:55:58;0.90;99.90
16160;DHT22;8185;57.818;15.224;2023-11-19T11:58:31;0.90;99.90
16160;DHT22;8185;57.818;15.224;2023-11-19T12:01:00;0.90;99.90
16160;DHT22;8185;57.818;15.224;2023-11-19T12:03:30;0.90;99.90
16160;DHT22;8185;57.818;15.224;2023-11-19T12:05:58;1.00;99.90
16160;DHT22;8185;57.818;15.224;2023-11-19T12:08:28;1.00;99.90
16160;DHT22;8185;57.818;15.224;2023-11-19T12:10:57;1.10;99.90
16160;DHT22;8185;57.818;15.224;2023-11-19T12:13:52;1.10;99.90
16160;DHT22;8185;57.818;15.224;2023-11-19T12:16:20;1.10;99.90
16160;DHT22;8185;57.818;15.224;2023-11-19T12:18:49;1.10;99.90
16160;DHT22;8185;57.818;15.224;2023-11-19T12:21:29;1.10;99.90
16160;DHT22;8185;57.818;15.224;2023-11-19T12:23:58;1.20;99.90
16160;DHT22;8185;57.818;15.224;2023-11-19T12:26:34;1.20;99.90
16160;DHT22;8185;57.818;15.224;2023-11-19T12:29:01;1.30;99.90
16160;DHT22;8185;57.818;15.224;2023-11-19T12:31:29;1.30;99.90
16160;DHT22;8185;57.818;15.224;2023-11-19T12:34:05;1.30;99.90
16160;DHT22;8185;57.818;15.224;2023-11-19T12:36:32;1.30;99.90
16160;DHT22;8185;57.818;15.224;2023-11-19T12:39:00;1.20;99.90
16160;DHT22;8185;57.818;15.224;2023-11-19T12:41:27;1.20;99.90
16160;DHT22;8185;57.818;15.224;2023-11-19T12:44:09;1.30;99.90
16160;DHT22;8185;57.818;15.224;2023-11-19T12:46:37;1.20;99.90
16160;DHT22;8185;57.818;15.224;2023-11-19T12:49:06;1.20;99.90
16160;DHT22;8185;57.818;15.224;2023-11-19T12:51:34;1.20;99.90
16160;DHT22;8185;57.818;15.224;2023-11-19T12:54:01;1.20;99.90
16160;DHT22;8185;57.818;15.224;2023-11-19T12:56:30;1.20;99.90
16160;DHT22;8185;57.818;15.224;2023-11-19T12:59:01;1.20;99.90
16160;DHT22;8185;57.818;15.224;2023-11-19T13:01:37;1.20;99.90
16160;DHT22;8185;57.818;15.224;2023-11-19T13:04:17;1.20;99.90
16160;DHT22;8185;57.818;15.224;2023-11-19T13:06:45;1.20;99.90
16160;DHT22;8185;57.818;15.224;2023-11-19T13:09:22;1.10;99.90
16160;DHT22;8185;57.818;15.224;2023-11-19T13:11:51;1.00;99.90
16160;DHT22;8185;57.818;15.224;2023-11-19T13:14:19;1.00;99.90
16160;DHT22;8185;57.818;15.224;2023-11-19T13:16:47;1.00;99.90
16160;DHT22;8185;57.818;15.224;2023-11-19T13:19:15;1.00;99.90
16160;DHT22;8185;57.818;15.224;2023-11-19T13:21:46;0.90;99.90
16160;DHT22;8185;57.818;15.224;2023-11-19T13:24:14;0.80;99.90
16160;DHT22;8185;57.818;15.224;2023-11-19T13:26:41;0.80;99.90
16160;DHT22;8185;57.818;15.224;2023-11-19T13:29:08;0.80;99.90
16160;DHT22;8185;57.818;15.224;2023-11-19T13:31:37;0.70;99.90
16160;DHT22;8185;57.818;15.224;2023-11-19T13:34:04;0.60;99.90
16160;DHT22;8185;57.818;15.224;2023-11-19T13:36:33;0.60;99.90
16160;DHT22;8185;57.818;15.224;2023-11-19T13:39:02;0.50;99.90
16160;DHT22;8185;57.818;15.224;2023-11-19T13:41:30;0.50;99.90
16160;DHT22;8185;57.818;15.224;2023-11-19T13:43:57;0.60;99.90
16160;DHT22;8185;57.818;15.224;2023-11-19T13:46:24;0.70;99.90
16160;DHT22;8185;57.818;15.224;2023-11-19T13:48:51;0.80;99.90
16160;DHT22;8185;57.818;15.224;2023-11-19T13:51:19;0.90;99.90
16160;DHT22;8185;57.818;15.224;2023-11-19T13:53:46;0.90;99.90
16160;DHT22;8185;57.818;15.224;2023-11-19T13:56:15;1.00;99.90
16160;DHT22;8185;57.818;15.224;2023-11-19T13:58:43;0.90;99.90
16160;DHT22;8185;57.818;15.224;2023-11-19T14:01:11;0.90;99.90
16160;DHT22;8185;57.818;15.224;2023-11-19T14:03:38;0.70;99.90
16160;DHT22;8185;57.818;15.224;2023-11-19T14:06:06;0.50;99.90
16160;DHT22;8185;57.818;15.224;2023-11-19T14:08:34;0.40;99.90
16160;DHT22;8185;57.818;15.224;2023-11-19T14:11:01;0.30;99.90
16160;DHT22;8185;57.818;15.224;2023-11-19T14:13:30;0.20;99.90
16160;DHT22;8185;57.818;15.224;2023-11-19T14:15:57;0.20;99.90
16160;DHT22;8185;57.818;15.224;2023-11-19T14:18:24;0.20;99.90
16160;DHT22;8185;57.818;15.224;2023-11-19T14:20:52;0.10;99.90
16160;DHT22;8185;57.818;15.224;2023-11-19T14:23:19;0.10;99.90
16160;DHT22;8185;57.818;15.224;2023-11-19T14:25:47;0.00;99.90
16160;DHT22;8185;57.818;15.224;2023-11-19T14:28:13;-0.10;99.90
16160;DHT22;8185;57.818;15.224;2023-11-19T14:30:41;-0.10;99.90
16160;DHT22;8185;57.818;15.224;2023-11-19T14:33:10;-0.10;99.90
16160;DHT22;8185;57.818;15.224;2023-11-19T14:35:37;-0.20;99.90
16160;DHT22;8185;57.818;15.224;2023-11-19T14:38:05;-0.30;99.90
16160;DHT22;8185;57.818;15.224;2023-11-19T14:40:35;-0.30;99.90
16160;DHT22;8185;57.818;15.224;2023-11-19T14:43:03;-0.30;99.90
16160;DHT22;8185;57.818;15.224;2023-11-19T14:45:30;-0.30;99.90
16160;DHT22;8185;57.818;15.224;2023-11-19T14:47:59;-0.40;99.90
16160;DHT22;8185;57.818;15.224;2023-11-19T14:50:26;-0.50;99.90
16160;DHT22;8185;57.818;15.224;2023-11-19T14:52:54;-0.50;99.90
16160;DHT22;8185;57.818;15.224;2023-11-19T14:55:21;-0.60;99.90
16160;DHT22;8185;57.818;15.224;2023-11-19T14:57:48;-0.70;99.90
16160;DHT22;8185;57.818;15.224;2023-11-19T15:00:17;-0.80;99.90
16160;DHT22;8185;57.818;15.224;2023-11-19T15:02:44;-0.90;99.90
16160;DHT22;8185;57.818;15.224;2023-11-19T15:05:13;-1.00;99.90
16160;DHT22;8185;57.818;15.224;2023-11-19T15:07:40;-1.00;99.90
16160;DHT22;8185;57.818;15.224;2023-11-19T15:10:08;-1.00;99.90
16160;DHT22;8185;57.818;15.224;2023-11-19T15:12:37;-1.00;99.90
16160;DHT22;8185;57.818;15.224;2023-11-19T15:15:07;-1.10;99.90
16160;DHT22;8185;57.818;15.224;2023-11-19T15:17:35;-1.10;99.90
16160;DHT22;8185;57.818;15.224;2023-11-19T15:20:03;-1.20;99.90
16160;DHT22;8185;57.818;15.224;2023-11-19T15:22:32;-1.20;99.90
16160;DHT22;8185;57.818;15.224;2023-11-19T15:24:59;-1.20;99.90
16160;DHT22;8185;57.818;15.224;2023-11-19T15:27:27;-1.30;99.90
16160;DHT22;8185;57.818;15.224;2023-11-19T15:29:54;-1.50;99.90
16160;DHT22;8185;57.818;15.224;2023-11-19T15:32:22;-1.60;99.90
16160;DHT22;8185;57.818;15.224;2023-11-19T15:34:49;-1.60;99.90
16160;DHT22;8185;57.818;15.224;2023-11-19T15:37:16;-1.50;99.90
16160;DHT22;8185;57.818;15.224;2023-11-19T15:39:45;-1.50;99.90
16160;DHT22;8185;57.818;15.224;2023-11-19T15:42:13;-1.50;99.90
16160;DHT22;8185;57.818;15.224;2023-11-19T15:44:40;-1.50;99.90